createdAt,value
2022-09-25T00:02:16.552Z,6.55
2022-09-25T00:04:51.726Z,6.61
2022-09-25T00:07:21.986Z,6.64
2022-09-25T00:09:52.754Z,6.64
2022-09-25T00:12:21.559Z,6.67
2022-09-25T00:14:54.620Z,6.72
2022-09-25T00:17:31.032Z,6.71
2022-09-25T00:19:59.739Z,6.73
2022-09-25T00:22:32.402Z,6.73
2022-09-25T00:25:06.614Z,6.62
2022-09-25T00:27:35.107Z,6.62
2022-09-25T00:30:05.262Z,6.76
2022-09-25T00:32:39.606Z,6.69
2022-09-25T00:35:13.878Z,6.74
2022-09-25T00:37:42.408Z,6.68
2022-09-25T00:40:14.311Z,6.66
2022-09-25T00:42:44.653Z,6.79
2022-09-25T00:45:17.432Z,6.83
2022-09-25T00:47:52.035Z,6.87
2022-09-25T00:50:35.591Z,6.92
2022-09-25T00:53:10.867Z,6.77
2022-09-25T00:55:44.293Z,6.99
2022-09-25T00:58:13.204Z,6.68
2022-09-25T01:00:42.319Z,7.01
2022-09-25T01:03:12.577Z,7.02
2022-09-25T01:05:45.557Z,6.97
2022-09-25T01:08:22.217Z,6.95
2022-09-25T01:11:00.129Z,6.75
2022-09-25T01:13:31.756Z,6.97
2022-09-25T01:16:08.111Z,7.10
2022-09-25T01:18:55.149Z,7.01
2022-09-25T01:21:32.886Z,7.09
2022-09-25T01:24:34.303Z,7.10
2022-09-25T01:27:34.106Z,7.12
2022-09-25T01:30:12.659Z,7.16
2022-09-25T01:32:51.974Z,7.17
2022-09-25T01:35:30.799Z,7.20
2022-09-25T01:38:03.863Z,7.20
2022-09-25T01:40:41.876Z,7.11
2022-09-25T01:43:16.429Z,6.83
2022-09-25T01:45:51.934Z,7.22
2022-09-25T01:48:25.230Z,7.03
2022-09-25T01:51:21.173Z,6.90
2022-09-25T01:53:53.838Z,6.53
2022-09-25T01:56:33.268Z,6.29
2022-09-25T01:59:05.501Z,6.19
2022-09-25T02:01:39.062Z,6.15
2022-09-25T02:04:17.081Z,6.08
2022-09-25T02:06:50.711Z,6.07
2022-09-25T02:09:26.504Z,5.84
2022-09-25T02:12:00.452Z,5.90
2022-09-25T02:14:35.350Z,5.79
2022-09-25T02:17:36.630Z,5.72
2022-09-25T02:20:31.401Z,5.63
2022-09-25T02:23:04.220Z,5.66
2022-09-25T02:25:41.790Z,5.31
2022-09-25T02:28:20.787Z,5.45
2022-09-25T02:30:54.557Z,5.45
2022-09-25T02:33:26.484Z,5.49
2022-09-25T02:36:02.288Z,5.30
2022-09-25T02:38:33.895Z,5.44
2022-09-25T02:41:13.579Z,5.44
2022-09-25T02:43:47.243Z,5.31
2022-09-25T02:46:25.415Z,5.13
2022-09-25T02:49:08.794Z,5.24
2022-09-25T02:51:45.477Z,5.41
2022-09-25T02:54:21.321Z,5.16
2022-09-25T02:57:02.974Z,5.40
2022-09-25T02:59:40.188Z,5.32
2022-09-25T03:02:13.762Z,5.35
2022-09-25T03:04:45.792Z,5.02
2022-09-25T03:07:18.329Z,5.28
2022-09-25T03:09:47.080Z,5.26
2022-09-25T03:12:15.955Z,5.13
2022-09-25T03:14:44.632Z,5.32
2022-09-25T03:17:13.186Z,5.12
2022-09-25T03:19:45.826Z,5.33
2022-09-25T03:22:19.801Z,5.30
2022-09-25T03:24:55.383Z,5.22
2022-09-25T03:27:24.743Z,5.20
2022-09-25T03:29:55.141Z,5.21
2022-09-25T03:32:31.994Z,5.24
2022-09-25T03:35:01.859Z,5.02
2022-09-25T03:37:38.735Z,5.27
2022-09-25T03:40:12.470Z,4.76
2022-09-25T03:42:40.899Z,5.11
2022-09-25T03:45:14.769Z,4.90
2022-09-25T03:47:46.233Z,5.25
2022-09-25T03:50:18.155Z,5.33
2022-09-25T03:52:46.695Z,5.23
2022-09-25T03:55:22.489Z,5.39
2022-09-25T03:57:51.102Z,5.37
2022-09-25T04:00:20.737Z,5.35
2022-09-25T04:02:52.888Z,5.38
2022-09-25T04:05:22.836Z,5.38
2022-09-25T04:07:56.360Z,5.41
2022-09-25T04:10:27.876Z,5.33
2022-09-25T04:12:58.502Z,5.11
2022-09-25T04:15:28.716Z,5.53
2022-09-25T04:18:06.102Z,5.29
2022-09-25T04:20:44.035Z,5.58
2022-09-25T04:23:15.009Z,5.47
2022-09-25T04:25:50.321Z,5.62
2022-09-25T04:28:22.430Z,5.56
2022-09-25T04:30:55.652Z,5.47
2022-09-25T04:33:43.038Z,5.40
2022-09-25T04:36:15.755Z,5.48
2022-09-25T04:38:50.114Z,5.60
2022-09-25T04:41:24.708Z,5.74
2022-09-25T04:43:53.228Z,5.75
2022-09-25T04:46:22.950Z,5.55
2022-09-25T04:48:52.099Z,5.25
2022-09-25T04:51:22.274Z,5.78
2022-09-25T04:53:51.196Z,5.65
2022-09-25T04:56:19.757Z,5.90
2022-09-25T04:58:54.465Z,5.69
2022-09-25T05:01:22.871Z,5.73
2022-09-25T05:03:54.619Z,5.44
2022-09-25T05:06:32.302Z,5.59
2022-09-25T05:09:00.681Z,5.55
2022-09-25T05:11:35.275Z,5.60
2022-09-25T05:14:09.281Z,5.47
2022-09-25T05:16:38.423Z,5.57
2022-09-25T05:19:09.373Z,5.58
2022-09-25T05:21:44.695Z,5.62
2022-09-25T05:24:15.535Z,5.67
2022-09-25T05:27:16.005Z,5.46
2022-09-25T05:29:44.362Z,5.79
2022-09-25T05:32:17.123Z,5.58
2022-09-25T05:34:45.492Z,5.87
2022-09-25T05:37:22.530Z,5.77
2022-09-25T05:39:57.065Z,5.33
2022-09-25T05:42:30.264Z,5.37
2022-09-25T05:45:07.571Z,5.55
2022-09-25T05:48:14.048Z,5.29
2022-09-25T05:50:42.970Z,5.48
2022-09-25T05:53:16.610Z,5.29
2022-09-25T05:55:55.383Z,5.26
2022-09-25T05:58:26.936Z,5.54
2022-09-25T06:00:57.239Z,5.55
2022-09-25T06:03:29.180Z,5.56
2022-09-25T06:05:57.936Z,5.52
2022-09-25T06:08:34.976Z,5.57
2022-09-25T06:11:08.472Z,5.60
2022-09-25T06:13:39.919Z,5.63
2022-09-25T06:16:20.564Z,5.62
2022-09-25T06:18:51.259Z,5.72
2022-09-25T06:21:22.290Z,5.81
2022-09-25T06:23:56.041Z,5.67
2022-09-25T06:26:24.671Z,5.95
2022-09-25T06:29:03.251Z,6.07
2022-09-25T06:31:34.843Z,5.82
2022-09-25T06:34:07.648Z,5.89
2022-09-25T06:36:38.699Z,6.12
2022-09-25T06:39:14.729Z,6.22
2022-09-25T06:41:45.649Z,6.28
2022-09-25T06:44:24.431Z,6.14
2022-09-25T06:46:54.614Z,6.51
2022-09-25T06:49:27.753Z,6.66
2022-09-25T06:52:02.569Z,6.76
2022-09-25T06:54:41.851Z,6.62
2022-09-25T06:57:15.534Z,6.84
2022-09-25T06:59:46.473Z,6.68
2022-09-25T07:02:45.547Z,6.28
2022-09-25T07:05:19.574Z,6.16
2022-09-25T07:07:50.382Z,6.52
2022-09-25T07:10:23.207Z,6.60
2022-09-25T07:12:51.621Z,6.54
2022-09-25T07:15:25.525Z,6.50
2022-09-25T07:17:55.856Z,6.60
2022-09-25T07:20:24.269Z,6.52
2022-09-25T07:22:55.183Z,6.17
2022-09-25T07:25:25.046Z,6.37
2022-09-25T07:27:53.456Z,6.39
2022-09-25T07:30:25.170Z,6.28
2022-09-25T07:33:00.111Z,6.11
2022-09-25T07:35:28.843Z,6.61
2022-09-25T07:38:01.080Z,6.59
2022-09-25T07:40:32.994Z,6.47
2022-09-25T07:43:02.774Z,6.55
2022-09-25T07:45:32.602Z,6.20
2022-09-25T07:48:05.749Z,6.55
2022-09-25T07:50:34.698Z,6.69
2022-09-25T07:53:07.277Z,6.79
2022-09-25T07:55:36.998Z,6.93
2022-09-25T07:58:05.539Z,6.98
2022-09-25T08:00:33.955Z,6.82
2022-09-25T08:03:02.431Z,6.58
2022-09-25T08:05:34.620Z,6.86
2022-09-25T08:08:08.241Z,6.67
2022-09-25T08:10:40.728Z,6.81
2022-09-25T08:13:19.821Z,6.62
2022-09-25T08:15:49.507Z,6.69
2022-09-25T08:18:20.171Z,6.67
2022-09-25T08:20:49.132Z,6.59
2022-09-25T08:23:20.602Z,6.31
2022-09-25T08:25:56.113Z,6.45
2022-09-25T08:28:24.663Z,5.87
2022-09-25T08:31:00.749Z,6.01
2022-09-25T08:33:29.238Z,6.38
2022-09-25T08:35:58.741Z,6.02
2022-09-25T08:38:33.453Z,6.05
2022-09-25T08:41:12.713Z,6.02
2022-09-25T08:43:49.054Z,5.88
2022-09-25T08:46:41.306Z,5.71
2022-09-25T08:49:11.609Z,5.95
2022-09-25T08:51:46.652Z,5.88
2022-09-25T08:54:20.920Z,5.97
2022-09-25T08:56:57.327Z,6.21
2022-09-25T08:59:38.941Z,5.97
2022-09-25T09:02:15.844Z,6.38
2022-09-25T09:04:53.146Z,6.50
2022-09-25T09:07:29.206Z,6.38
2022-09-25T09:10:12.113Z,6.14
2022-09-25T09:12:58.805Z,6.44
2022-09-25T09:15:34.348Z,6.50
2022-09-25T09:18:17.930Z,6.49
2022-09-25T09:20:55.687Z,6.39
2022-09-25T09:23:25.293Z,6.63
2022-09-25T09:26:10.731Z,6.61
2022-09-25T09:29:05.461Z,6.63
2022-09-25T09:31:41.666Z,6.39
2022-09-25T09:35:01.255Z,6.41
2022-09-25T09:37:37.089Z,6.56
2022-09-25T09:40:23.690Z,6.53
2022-09-25T09:43:03.884Z,6.47
2022-09-25T09:45:42.306Z,6.37
2022-09-25T09:48:17.694Z,6.35
2022-09-25T09:50:54.049Z,6.34
2022-09-25T09:53:34.232Z,6.15
2022-09-25T09:56:11.391Z,6.08
2022-09-25T09:58:48.469Z,6.13
2022-09-25T10:04:19.303Z,6.65
2022-09-25T10:06:53.648Z,6.85
2022-09-25T10:09:25.123Z,6.86
2022-09-25T10:12:00.960Z,6.96
2022-09-25T10:14:42.029Z,6.70
2022-09-25T10:17:16.233Z,6.46
2022-09-25T10:19:52.994Z,6.70
2022-09-25T10:22:22.735Z,6.54
2022-09-25T10:25:00.238Z,6.41
2022-09-25T10:27:33.940Z,6.46
2022-09-25T10:30:06.966Z,6.60
2022-09-25T10:32:47.722Z,6.70
2022-09-25T10:35:23.025Z,6.92
2022-09-25T10:37:55.143Z,7.13
2022-09-25T10:40:29.655Z,7.34
2022-09-25T10:43:08.077Z,7.16
2022-09-25T10:45:41.559Z,7.02
2022-09-25T10:49:15.254Z,7.00
2022-09-25T10:52:06.863Z,7.13
2022-09-25T10:54:41.864Z,6.83
2022-09-25T10:57:27.679Z,6.55
2022-09-25T11:00:00.668Z,6.30
2022-09-25T11:02:38.269Z,6.87
2022-09-25T11:05:20.787Z,6.66
2022-09-25T11:07:55.249Z,6.70
2022-09-25T11:10:24.618Z,7.22
2022-09-25T11:12:53.597Z,6.88
2022-09-25T11:15:24.235Z,7.05
2022-09-25T11:17:58.735Z,7.39
2022-09-25T11:20:30.918Z,7.13
2022-09-25T11:23:09.598Z,7.19
2022-09-25T11:25:43.654Z,7.06
2022-09-25T11:28:38.960Z,6.72
2022-09-25T11:31:15.005Z,6.31
2022-09-25T11:33:51.307Z,6.80
2022-09-25T11:36:32.588Z,6.68
2022-09-25T11:39:21.990Z,6.38
2022-09-25T11:41:56.358Z,6.70
2022-09-25T11:44:35.683Z,6.52
2022-09-25T11:47:10.111Z,6.93
2022-09-25T11:49:40.147Z,6.81
2022-09-25T11:52:37.579Z,6.70
2022-09-25T11:55:58.235Z,6.61
2022-09-25T11:58:46.069Z,6.24
2022-09-25T12:01:33.109Z,6.36
2022-09-25T12:04:24.912Z,6.38
2022-09-25T12:07:29.701Z,6.41
2022-09-25T12:10:09.103Z,6.38
2022-09-25T12:12:47.496Z,6.34
2022-09-25T12:15:24.446Z,6.02
2022-09-25T12:18:02.963Z,5.93
2022-09-25T12:20:37.836Z,6.30
2022-09-25T12:23:22.476Z,6.37
2022-09-25T12:26:13.038Z,6.49
2022-09-25T12:28:56.390Z,5.98
2022-09-25T12:31:45.356Z,6.30
2022-09-25T12:34:29.060Z,6.48
2022-09-25T12:37:27.517Z,6.47
2022-09-25T12:40:00.137Z,6.54
2022-09-25T12:42:41.673Z,6.53
2022-09-25T12:45:21.958Z,6.50
2022-09-25T12:48:06.484Z,6.64
2022-09-25T12:50:40.775Z,6.56
2022-09-25T12:53:21.510Z,6.89
2022-09-25T12:55:57.414Z,6.83
2022-09-25T12:58:40.852Z,6.92
2022-09-25T13:01:14.826Z,7.04
2022-09-25T13:03:49.377Z,6.79
2022-09-25T13:06:28.884Z,6.91
2022-09-25T13:09:00.743Z,6.95
2022-09-25T13:11:35.995Z,7.37
2022-09-25T13:14:15.575Z,7.29
2022-09-25T13:16:48.982Z,7.19
2022-09-25T13:19:27.298Z,7.16
2022-09-25T13:22:07.653Z,7.26
2022-09-25T13:24:45.133Z,7.22
2022-09-25T13:27:22.495Z,6.85
2022-09-25T13:30:01.083Z,6.64
2022-09-25T13:32:34.981Z,6.59
2022-09-25T13:35:07.588Z,6.83
2022-09-25T13:37:37.706Z,7.18
2022-09-25T13:40:34.937Z,7.27
2022-09-25T13:43:24.942Z,7.07
2022-09-25T13:46:28.497Z,7.07
2022-09-25T13:49:35.701Z,7.10
2022-09-25T13:52:16.114Z,7.02
2022-09-25T13:54:44.590Z,7.04
2022-09-25T13:57:18.657Z,7.04
2022-09-25T14:00:03.865Z,6.59
2022-09-25T14:03:01.366Z,6.75
2022-09-25T14:05:39.095Z,7.14
2022-09-25T14:08:13.345Z,7.23
2022-09-25T14:10:46.935Z,7.32
2022-09-25T14:13:18.165Z,7.17
2022-09-25T14:15:48.067Z,7.19
2022-09-25T14:18:20.205Z,6.87
2022-09-25T14:20:58.235Z,7.19
2022-09-25T14:23:33.740Z,7.19
2022-09-25T14:26:20.233Z,6.68
2022-09-25T14:28:53.137Z,6.92
2022-09-25T14:31:46.221Z,6.74
2022-09-25T14:34:50.616Z,6.54
2022-09-25T14:37:34.063Z,6.67
2022-09-25T14:40:10.475Z,7.02
2022-09-25T14:43:21.648Z,6.67
2022-09-25T14:45:59.830Z,6.92
2022-09-25T14:48:32.578Z,7.01
2022-09-25T14:51:03.896Z,6.91
2022-09-25T14:53:42.667Z,6.46
2022-09-25T14:56:14.938Z,6.52
2022-09-25T14:58:54.033Z,6.81
2022-09-25T15:01:30.003Z,6.59
2022-09-25T15:04:00.473Z,6.93
2022-09-25T15:06:35.114Z,6.82
2022-09-25T15:09:29.855Z,6.78
2022-09-25T15:12:00.713Z,6.63
2022-09-25T15:14:32.354Z,6.43
2022-09-25T15:17:20.212Z,6.75
2022-09-25T15:19:49.253Z,6.45
2022-09-25T15:22:23.188Z,6.63
2022-09-25T15:24:58.662Z,6.67
2022-09-25T15:27:29.215Z,6.64
2022-09-25T15:30:02.250Z,6.66
2022-09-25T15:32:39.580Z,6.68
2022-09-25T15:35:25.480Z,6.42
2022-09-25T15:38:05.484Z,6.57
2022-09-25T15:40:45.573Z,6.43
2022-09-25T15:43:17.156Z,6.73
2022-09-25T15:45:50.361Z,6.62
2022-09-25T15:48:28.243Z,6.80
2022-09-25T15:51:14.272Z,6.78
2022-09-25T15:53:47.398Z,6.72
2022-09-25T15:56:21.234Z,6.66
2022-09-25T15:58:55.628Z,6.68
2022-09-25T16:02:05.627Z,6.85
2022-09-25T16:04:49.764Z,6.80
2022-09-25T16:07:30.306Z,6.77
2022-09-25T16:10:03.448Z,6.40
2022-09-25T16:12:36.189Z,6.65
2022-09-25T16:15:44.134Z,6.67
2022-09-25T16:18:32.169Z,6.64
2022-09-25T16:21:23.462Z,6.60
2022-09-25T16:23:56.119Z,6.23
2022-09-25T16:26:44.690Z,6.62
2022-09-25T16:29:23.780Z,6.56
2022-09-25T16:32:02.196Z,6.77
2022-09-25T16:34:34.745Z,6.72
2022-09-25T16:37:04.693Z,6.44
2022-09-25T16:39:40.536Z,6.78
2022-09-25T16:42:35.927Z,6.79
2022-09-25T16:45:16.121Z,6.83
2022-09-25T16:47:51.101Z,6.86
2022-09-25T16:50:25.432Z,6.85
2022-09-25T16:52:55.992Z,6.73
2022-09-25T16:55:33.374Z,6.87
2022-09-25T16:58:19.557Z,6.79
2022-09-25T17:00:54.257Z,6.71
2022-09-25T17:03:22.687Z,6.58
2022-09-25T17:05:52.077Z,6.40
2022-09-25T17:08:24.465Z,6.29
2022-09-25T17:10:55.145Z,6.72
2022-09-25T17:13:42.000Z,6.07
2022-09-25T17:16:11.991Z,6.50
2022-09-25T17:18:46.070Z,6.07
2022-09-25T17:21:18.914Z,6.61
2022-09-25T17:23:49.683Z,6.45
2022-09-25T17:26:21.809Z,6.27
2022-09-25T17:28:52.466Z,6.56
2022-09-25T17:31:23.792Z,6.53
2022-09-25T17:33:55.189Z,6.51
2022-09-25T17:36:25.867Z,6.25
2022-09-25T17:38:56.822Z,6.40
2022-09-25T17:41:34.141Z,6.19
2022-09-25T17:44:13.435Z,6.64
2022-09-25T17:46:52.965Z,6.68
2022-09-25T17:49:21.451Z,6.38
2022-09-25T17:51:52.192Z,6.64
2022-09-25T17:54:21.598Z,6.10
2022-09-25T17:56:50.554Z,6.68
2022-09-25T17:59:23.489Z,6.70
2022-09-25T18:02:00.859Z,6.56
2022-09-25T18:04:37.196Z,6.89
2022-09-25T18:07:15.713Z,6.52
2022-09-25T18:09:44.281Z,6.95
2022-09-25T18:12:15.441Z,6.87
2022-09-25T18:14:51.357Z,6.86
2022-09-25T18:17:27.112Z,6.98
2022-09-25T18:20:15.894Z,6.84
2022-09-25T18:22:44.697Z,6.80
2022-09-25T18:25:13.265Z,6.72
2022-09-25T18:27:45.015Z,6.70
2022-09-25T18:30:20.362Z,5.85
2022-09-25T18:32:59.172Z,5.93
2022-09-25T18:35:30.396Z,6.27
2022-09-25T18:38:04.592Z,6.14
2022-09-25T18:40:33.176Z,6.73
2022-09-25T18:43:04.346Z,6.72
2022-09-25T18:45:35.075Z,6.22
2022-09-25T18:48:09.797Z,6.76
2022-09-25T18:50:41.872Z,6.63
2022-09-25T18:53:12.923Z,6.77
2022-09-25T18:55:49.158Z,6.56
2022-09-25T18:58:20.530Z,6.91
2022-09-25T19:00:56.398Z,6.64
2022-09-25T19:03:26.317Z,6.50
2022-09-25T19:06:02.137Z,6.82
2022-09-25T19:08:38.367Z,6.51
2022-09-25T19:11:16.125Z,6.42
2022-09-25T19:13:49.725Z,6.55
2022-09-25T19:16:18.779Z,6.88
2022-09-25T19:18:56.638Z,6.12
2022-09-25T19:21:27.595Z,6.61
2022-09-25T19:24:00.027Z,6.50
2022-09-25T19:26:28.695Z,6.51
2022-09-25T19:28:57.782Z,6.72
2022-09-25T19:31:28.089Z,6.73
2022-09-25T19:34:05.357Z,6.47
2022-09-25T19:36:38.662Z,6.84
2022-09-25T19:39:07.321Z,6.64
2022-09-25T19:41:40.987Z,6.58
2022-09-25T19:44:13.701Z,6.67
2022-09-25T19:46:44.304Z,6.63
2022-09-25T19:49:19.341Z,6.76
2022-09-25T19:51:51.443Z,6.12
2022-09-25T19:54:26.055Z,6.67
2022-09-25T19:56:57.002Z,6.40
2022-09-25T19:59:28.788Z,6.66
2022-09-25T20:01:58.694Z,6.60
2022-09-25T20:04:30.857Z,6.60
2022-09-25T20:07:01.734Z,6.14
2022-09-25T20:09:30.174Z,6.78
2022-09-25T20:12:01.787Z,6.85
2022-09-25T20:14:30.311Z,6.89
2022-09-25T20:17:05.285Z,6.69
2022-09-25T20:19:44.528Z,6.96
2022-09-25T20:22:16.677Z,6.95
2022-09-25T20:24:45.373Z,6.95
2022-09-25T20:27:18.563Z,7.00
2022-09-25T20:29:58.605Z,7.01
2022-09-25T20:32:32.102Z,6.86
2022-09-25T20:35:06.376Z,6.40
2022-09-25T20:37:34.952Z,6.72
2022-09-25T20:40:09.103Z,6.83
2022-09-25T20:42:51.055Z,6.76
2022-09-25T20:45:35.408Z,7.03
2022-09-25T20:48:14.868Z,6.49
2022-09-25T20:50:56.380Z,7.00
2022-09-25T20:53:26.684Z,6.71
2022-09-25T20:55:57.776Z,7.04
2022-09-25T20:58:30.459Z,7.05
2022-09-25T21:01:02.584Z,7.09
2022-09-25T21:03:34.001Z,7.11
2022-09-25T21:06:10.059Z,7.11
2022-09-25T21:08:42.614Z,7.12
2022-09-25T21:11:17.778Z,6.95
2022-09-25T21:13:53.693Z,6.85
2022-09-25T21:16:29.383Z,6.55
2022-09-25T21:19:06.924Z,6.70
2022-09-25T21:21:40.415Z,6.96
2022-09-25T21:24:19.305Z,7.01
2022-09-25T21:26:51.061Z,6.99
2022-09-25T21:29:27.645Z,6.74
2022-09-25T21:32:06.335Z,6.91
2022-09-25T21:34:39.369Z,6.41
2022-09-25T21:37:20.320Z,6.80
2022-09-25T21:40:04.455Z,6.21
2022-09-25T21:42:40.222Z,6.72
2022-09-25T21:45:36.047Z,6.66
2022-09-25T21:48:06.833Z,6.56
2022-09-25T21:50:41.586Z,6.51
2022-09-25T21:53:27.478Z,6.40
2022-09-25T21:56:33.510Z,6.34
2022-09-25T21:59:12.141Z,5.94
2022-09-25T22:01:45.351Z,6.22
2022-09-25T22:04:15.552Z,6.26
2022-09-25T22:06:47.212Z,5.95
2022-09-25T22:09:22.224Z,6.28
2022-09-25T22:11:53.449Z,5.94
2022-09-25T22:14:26.854Z,5.98
2022-09-25T22:16:56.477Z,6.11
2022-09-25T22:19:32.084Z,6.28
2022-09-25T22:22:03.616Z,6.24
2022-09-25T22:24:42.596Z,6.19
2022-09-25T22:27:11.341Z,6.06
2022-09-25T22:29:39.831Z,6.10
2022-09-25T22:32:11.219Z,6.12
2022-09-25T22:34:42.718Z,6.11
2022-09-25T22:37:14.690Z,6.09
2022-09-25T22:39:44.858Z,5.91
2022-09-25T22:42:17.545Z,5.89
2022-09-25T22:44:45.963Z,5.64
2022-09-25T22:47:18.962Z,5.88
2022-09-25T22:49:47.334Z,6.01
2022-09-25T22:52:19.002Z,6.03
2022-09-25T22:54:51.843Z,6.02
2022-09-25T22:57:22.903Z,6.00
2022-09-25T22:59:55.919Z,5.98
2022-09-25T23:02:24.302Z,5.90
2022-09-25T23:04:55.187Z,5.94
2022-09-25T23:07:25.893Z,5.76
2022-09-25T23:09:56.050Z,5.90
2022-09-25T23:12:30.655Z,5.60
2022-09-25T23:15:11.797Z,5.69
2022-09-25T23:17:40.310Z,5.98
2022-09-25T23:20:11.338Z,6.02
2022-09-25T23:22:40.958Z,5.89
2022-09-25T23:25:11.288Z,6.10
2022-09-25T23:27:42.294Z,6.14
2022-09-25T23:30:12.108Z,6.11
2022-09-25T23:32:40.841Z,6.07
2022-09-25T23:35:10.508Z,5.93
2022-09-25T23:37:40.054Z,5.89
2022-09-25T23:40:15.661Z,6.02
2022-09-25T23:42:47.239Z,5.79
2022-09-25T23:45:18.899Z,5.40
2022-09-25T23:47:47.427Z,5.86
2022-09-25T23:50:18.185Z,5.79
2022-09-25T23:52:46.795Z,5.98
2022-09-25T23:55:20.121Z,5.99
2022-09-25T23:57:49.707Z,6.01
